createdAt,value
2023-02-15T00:02:02.039Z,26.80
2023-02-15T00:04:47.462Z,28.20
2023-02-15T00:07:18.822Z,25.60
2023-02-15T00:09:48.966Z,26.10
2023-02-15T00:12:16.467Z,27.13
2023-02-15T00:14:43.273Z,31.73
2023-02-15T00:17:09.838Z,28.10
2023-02-15T00:19:36.312Z,25.63
2023-02-15T00:22:02.706Z,28.02
2023-02-15T00:24:29.083Z,24.10
2023-02-15T00:26:55.493Z,24.75
2023-02-15T00:29:21.978Z,28.23
2023-02-15T00:31:49.208Z,25.52
2023-02-15T00:34:19.430Z,24.25
2023-02-15T00:36:46.254Z,23.15
2023-02-15T00:39:13.220Z,22.85
2023-02-15T00:41:40.077Z,23.33
2023-02-15T00:44:06.855Z,24.83
2023-02-15T00:46:33.479Z,22.92
2023-02-15T00:48:59.882Z,23.73
2023-02-15T00:51:26.559Z,23.60
2023-02-15T00:53:53.446Z,23.63
2023-02-15T00:56:20.467Z,25.25
2023-02-15T00:58:46.907Z,27.48
2023-02-15T01:01:18.854Z,24.23
2023-02-15T01:03:47.379Z,24.23
2023-02-15T01:06:15.526Z,25.05
2023-02-15T01:08:42.067Z,26.90
2023-02-15T01:11:15.129Z,25.75
2023-02-15T01:13:42.231Z,25.75
2023-02-15T01:16:09.264Z,32.85
2023-02-15T01:18:36.505Z,28.83
2023-02-15T01:21:11.646Z,29.67
2023-02-15T01:23:38.269Z,32.13
2023-02-15T01:26:04.708Z,28.50
2023-02-15T01:28:32.137Z,25.38
2023-02-15T01:31:00.147Z,25.35
2023-02-15T01:33:26.744Z,23.65
2023-02-15T01:35:59.989Z,27.48
2023-02-15T01:38:26.500Z,24.38
2023-02-15T01:40:53.819Z,27.92
2023-02-15T01:43:20.397Z,24.65
2023-02-15T01:45:50.165Z,26.55
2023-02-15T01:48:29.106Z,25.73
2023-02-15T01:51:02.975Z,26.45
2023-02-15T01:53:39.447Z,28.10
2023-02-15T01:56:09.885Z,27.00
2023-02-15T02:01:07.926Z,24.92
2023-02-15T02:03:47.386Z,25.33
2023-02-15T02:06:14.221Z,24.48
2023-02-15T02:08:41.636Z,29.35
2023-02-15T02:11:15.343Z,31.80
2023-02-15T02:13:43.392Z,27.55
2023-02-15T02:16:23.905Z,27.35
2023-02-15T02:19:02.574Z,26.25
2023-02-15T02:21:53.316Z,25.10
2023-02-15T02:24:42.148Z,28.55
2023-02-15T02:27:20.784Z,26.55
2023-02-15T02:29:47.153Z,27.13
2023-02-15T02:32:28.920Z,26.60
2023-02-15T02:35:06.228Z,25.40
2023-02-15T02:37:52.746Z,25.48
2023-02-15T02:40:35.554Z,27.20
2023-02-15T02:43:27.079Z,26.83
2023-02-15T02:46:07.667Z,26.40
2023-02-15T02:48:34.594Z,24.65
2023-02-15T02:51:01.351Z,27.60
2023-02-15T02:53:31.008Z,28.35
2023-02-15T02:56:18.046Z,28.10
2023-02-15T02:58:51.240Z,26.80
2023-02-15T03:01:45.114Z,26.67
2023-02-15T03:04:18.281Z,25.55
2023-02-15T03:06:50.465Z,27.02
2023-02-15T03:09:25.211Z,27.17
2023-02-15T03:11:51.919Z,26.73
2023-02-15T03:14:20.118Z,29.67
2023-02-15T03:16:49.640Z,31.60
2023-02-15T03:19:26.185Z,31.03
2023-02-15T03:22:04.457Z,28.40
2023-02-15T03:24:42.682Z,34.22
2023-02-15T03:27:18.094Z,27.63
2023-02-15T03:29:48.725Z,26.77
2023-02-15T03:32:16.441Z,27.55
2023-02-15T03:34:44.533Z,29.98
2023-02-15T03:37:29.318Z,27.80
2023-02-15T03:40:21.909Z,26.60
2023-02-15T03:42:56.598Z,26.88
2023-02-15T03:45:30.424Z,25.10
2023-02-15T03:47:59.720Z,26.88
2023-02-15T03:50:48.957Z,26.33
2023-02-15T03:53:22.091Z,23.95
2023-02-15T03:55:49.947Z,26.65
2023-02-15T03:58:35.049Z,25.38
2023-02-15T04:01:29.954Z,26.20
2023-02-15T04:04:01.667Z,25.05
2023-02-15T04:06:28.032Z,24.90
2023-02-15T04:09:13.065Z,26.70
2023-02-15T04:11:39.459Z,26.25
2023-02-15T04:14:25.818Z,26.92
2023-02-15T04:16:52.311Z,30.85
2023-02-15T04:19:37.426Z,31.83
2023-02-15T04:22:22.307Z,31.00
2023-02-15T04:25:07.067Z,33.10
2023-02-15T04:27:34.403Z,32.50
2023-02-15T04:30:00.902Z,33.92
2023-02-15T04:32:28.029Z,35.83
2023-02-15T04:34:54.549Z,34.95
2023-02-15T04:37:21.001Z,34.50
2023-02-15T04:39:47.409Z,36.22
2023-02-15T04:42:13.828Z,34.10
2023-02-15T04:44:40.227Z,36.38
2023-02-15T04:47:06.586Z,32.88
2023-02-15T04:49:33.013Z,37.42
2023-02-15T04:51:59.422Z,35.15
2023-02-15T04:54:25.841Z,35.17
2023-02-15T04:56:52.216Z,33.05
2023-02-15T04:59:18.606Z,36.65
2023-02-15T05:01:45.027Z,34.03
2023-02-15T05:04:11.709Z,38.88
2023-02-15T05:06:38.115Z,34.45
2023-02-15T05:09:04.514Z,35.40
2023-02-15T05:11:30.958Z,34.35
2023-02-15T05:13:57.397Z,35.03
2023-02-15T05:16:23.861Z,32.47
2023-02-15T05:18:50.401Z,36.20
2023-02-15T05:21:17.565Z,34.78
2023-02-15T05:23:43.951Z,35.17
2023-02-15T05:26:31.505Z,35.38
2023-02-15T05:28:57.912Z,37.05
2023-02-15T05:31:24.595Z,36.97
2023-02-15T05:33:51.083Z,39.88
2023-02-15T05:36:17.619Z,37.55
2023-02-15T05:38:44.052Z,39.05
2023-02-15T05:41:11.918Z,39.60
2023-02-15T05:43:39.296Z,38.42
2023-02-15T05:46:06.647Z,38.35
2023-02-15T05:48:34.064Z,40.63
2023-02-15T05:51:02.686Z,40.35
2023-02-15T05:53:31.188Z,42.33
2023-02-15T05:56:01.012Z,41.85
2023-02-15T05:58:32.548Z,42.55
2023-02-15T06:00:59.064Z,40.75
2023-02-15T06:03:26.772Z,39.17
2023-02-15T06:05:53.639Z,41.80
2023-02-15T06:08:20.638Z,41.33
2023-02-15T06:10:47.562Z,40.58
2023-02-15T06:13:13.981Z,38.40
2023-02-15T06:15:40.441Z,38.50
2023-02-15T06:18:06.872Z,43.95
2023-02-15T06:20:33.416Z,41.85
2023-02-15T06:22:59.820Z,38.70
2023-02-15T06:25:26.200Z,41.40
2023-02-15T06:27:52.594Z,40.90
2023-02-15T06:30:19.161Z,42.95
2023-02-15T06:32:45.770Z,39.70
2023-02-15T06:35:12.505Z,42.15
2023-02-15T06:37:39.690Z,41.20
2023-02-15T06:40:06.937Z,40.42
2023-02-15T06:42:33.336Z,45.38
2023-02-15T06:45:01.260Z,43.25
2023-02-15T06:47:27.695Z,40.75
2023-02-15T06:49:54.076Z,41.83
2023-02-15T06:52:20.540Z,41.53
2023-02-15T06:54:46.921Z,37.97
2023-02-15T06:57:13.309Z,40.58
2023-02-15T06:59:39.660Z,42.92
2023-02-15T07:02:06.393Z,44.88
2023-02-15T07:04:32.938Z,42.05
2023-02-15T07:06:59.463Z,45.13
2023-02-15T07:09:25.990Z,37.38
2023-02-15T07:12:11.090Z,37.33
2023-02-15T07:14:37.529Z,37.08
2023-02-15T07:17:03.953Z,47.55
2023-02-15T07:19:30.341Z,48.50
2023-02-15T07:21:56.789Z,39.38
2023-02-15T07:24:23.264Z,36.65
2023-02-15T07:26:49.693Z,34.55
2023-02-15T07:29:16.841Z,38.15
2023-02-15T07:31:46.201Z,37.85
2023-02-15T07:34:12.918Z,32.63
2023-02-15T07:36:39.298Z,36.72
2023-02-15T07:39:05.695Z,37.10
2023-02-15T07:41:32.105Z,29.60
2023-02-15T07:43:58.626Z,33.88
2023-02-15T07:46:25.120Z,37.05
2023-02-15T07:48:51.524Z,31.17
2023-02-15T07:51:18.004Z,30.45
2023-02-15T07:53:44.453Z,36.85
2023-02-15T07:56:13.357Z,31.05
2023-02-15T07:58:51.757Z,31.15
2023-02-15T08:01:30.697Z,30.92
2023-02-15T08:04:00.974Z,32.90
2023-02-15T08:06:29.842Z,28.58
2023-02-15T08:08:56.570Z,31.02
2023-02-15T08:11:38.497Z,31.38
2023-02-15T08:14:12.442Z,39.92
2023-02-15T08:16:49.637Z,37.65
2023-02-15T08:19:28.531Z,31.55
2023-02-15T08:22:00.327Z,30.30
2023-02-15T08:24:29.469Z,28.85
2023-02-15T08:26:56.359Z,26.17
2023-02-15T08:29:25.343Z,30.90
2023-02-15T08:31:55.282Z,30.05
2023-02-15T08:34:22.199Z,28.60
2023-02-15T08:36:48.662Z,29.08
2023-02-15T08:39:16.398Z,28.63
2023-02-15T08:41:45.086Z,28.95
2023-02-15T08:44:12.638Z,25.20
2023-02-15T08:46:42.517Z,26.05
2023-02-15T08:49:10.525Z,24.60
2023-02-15T08:51:39.211Z,27.55
2023-02-15T08:54:09.922Z,33.97
2023-02-15T08:56:39.330Z,30.38
2023-02-15T08:59:06.834Z,25.77
2023-02-15T09:01:35.028Z,33.00
2023-02-15T09:04:07.338Z,29.88
2023-02-15T09:06:34.044Z,31.00
2023-02-15T09:09:00.524Z,27.42
2023-02-15T09:11:31.867Z,29.55
2023-02-15T09:14:01.233Z,30.23
2023-02-15T09:16:30.801Z,25.92
2023-02-15T09:19:02.462Z,30.75
2023-02-15T09:21:29.682Z,27.98
2023-02-15T09:23:59.472Z,26.83
2023-02-15T09:26:27.757Z,27.95
2023-02-15T09:28:56.776Z,32.15
2023-02-15T09:31:26.643Z,25.27
2023-02-15T09:33:53.423Z,24.45
2023-02-15T09:36:23.195Z,27.83
2023-02-15T09:38:57.381Z,26.98
2023-02-15T09:41:56.058Z,35.90
2023-02-15T09:44:41.334Z,29.65
2023-02-15T09:47:55.762Z,27.67
2023-02-15T09:50:59.923Z,27.30
2023-02-15T09:54:01.973Z,28.00
2023-02-15T09:56:50.667Z,27.73
2023-02-15T09:59:35.806Z,34.55
2023-02-15T10:02:36.922Z,29.88
2023-02-15T10:05:18.096Z,27.45
2023-02-15T10:08:03.002Z,27.10
2023-02-15T10:10:50.883Z,27.77
2023-02-15T10:13:29.415Z,26.38
2023-02-15T10:16:08.933Z,27.52
2023-02-15T10:18:52.798Z,26.37
2023-02-15T10:21:41.235Z,26.73
2023-02-15T10:24:43.220Z,26.55
2023-02-15T10:27:20.314Z,27.58
2023-02-15T10:30:02.108Z,27.75
2023-02-15T10:32:33.840Z,25.00
2023-02-15T10:35:37.864Z,27.50
2023-02-15T10:38:21.641Z,24.50
2023-02-15T10:41:25.266Z,23.23
2023-02-15T10:44:22.646Z,25.63
2023-02-15T10:47:07.773Z,24.75
2023-02-15T10:50:01.046Z,24.92
2023-02-15T10:52:52.349Z,22.95
2023-02-15T10:55:31.844Z,24.60
2023-02-15T10:58:35.806Z,26.77
2023-02-15T11:01:14.796Z,26.38
2023-02-15T11:04:00.009Z,28.65
2023-02-15T11:06:27.956Z,26.38
2023-02-15T11:09:02.324Z,27.52
2023-02-15T11:11:33.281Z,24.00
2023-02-15T11:14:21.895Z,23.38
2023-02-15T11:16:54.837Z,23.92
2023-02-15T11:19:29.869Z,22.88
2023-02-15T11:22:01.882Z,24.30
2023-02-15T11:24:30.920Z,23.02
2023-02-15T11:27:04.182Z,25.45
2023-02-15T11:29:47.303Z,26.38
2023-02-15T11:32:28.976Z,22.77
2023-02-15T11:35:10.530Z,26.55
2023-02-15T11:37:52.470Z,26.23
2023-02-15T11:40:25.758Z,23.80
2023-02-15T11:42:56.488Z,23.60
2023-02-15T11:45:35.404Z,26.27
2023-02-15T11:48:09.089Z,26.38
2023-02-15T11:50:35.525Z,22.02
2023-02-15T11:53:14.142Z,22.33
2023-02-15T11:55:43.989Z,20.83
2023-02-15T11:58:32.398Z,25.10
2023-02-15T12:01:28.075Z,21.35
2023-02-15T12:04:04.989Z,24.55
2023-02-15T12:06:36.687Z,21.45
2023-02-15T12:09:25.903Z,21.48
2023-02-15T12:11:52.352Z,22.63
2023-02-15T12:14:19.084Z,23.13
2023-02-15T12:16:46.743Z,20.25
2023-02-15T12:19:41.453Z,22.02
2023-02-15T12:22:21.536Z,20.88
2023-02-15T12:24:49.752Z,20.13
2023-02-15T12:27:22.885Z,22.80
2023-02-15T12:29:53.462Z,20.13
2023-02-15T12:32:26.502Z,21.90
2023-02-15T12:35:01.482Z,22.27
2023-02-15T12:37:32.414Z,21.38
2023-02-15T12:40:00.734Z,21.27
2023-02-15T12:42:41.107Z,22.65
2023-02-15T12:45:27.783Z,22.23
2023-02-15T12:48:13.161Z,22.63
2023-02-15T12:50:42.163Z,26.08
2023-02-15T12:53:15.999Z,22.40
2023-02-15T12:56:06.350Z,22.55
2023-02-15T12:58:34.848Z,26.58
2023-02-15T13:01:13.067Z,24.98
2023-02-15T13:03:55.838Z,23.67
2023-02-15T13:06:22.756Z,23.02
2023-02-15T13:08:52.255Z,25.98
2023-02-15T13:11:38.352Z,25.47
2023-02-15T13:14:32.995Z,24.65
2023-02-15T13:17:03.236Z,27.05
2023-02-15T13:19:44.195Z,25.08
2023-02-15T13:22:23.944Z,25.73
2023-02-15T13:24:57.878Z,26.27
2023-02-15T13:27:36.139Z,27.20
2023-02-15T13:30:11.719Z,26.65
2023-02-15T13:32:41.809Z,27.77
2023-02-15T13:35:16.112Z,23.63
2023-02-15T13:38:13.023Z,31.27
2023-02-15T13:40:51.993Z,27.55
2023-02-15T13:43:34.627Z,23.35
2023-02-15T13:46:08.619Z,28.02
2023-02-15T13:48:53.237Z,26.55
2023-02-15T13:51:46.218Z,34.45
2023-02-15T13:54:47.691Z,28.08
2023-02-15T13:57:40.262Z,24.25
2023-02-15T14:00:06.648Z,23.67
2023-02-15T14:03:11.364Z,26.35
2023-02-15T14:06:00.463Z,23.92
2023-02-15T14:08:59.350Z,29.27
2023-02-15T14:11:25.703Z,24.63
2023-02-15T14:14:01.388Z,25.92
2023-02-15T14:16:34.341Z,26.23
2023-02-15T14:19:14.219Z,27.92
2023-02-15T14:21:47.802Z,29.08
2023-02-15T14:24:26.046Z,32.70
2023-02-15T14:26:59.947Z,30.60
2023-02-15T14:29:50.441Z,28.20
2023-02-15T14:34:53.684Z,24.58
2023-02-15T14:37:40.897Z,25.92
2023-02-15T14:41:04.526Z,25.48
2023-02-15T14:43:34.318Z,25.77
2023-02-15T14:46:19.883Z,28.58
2023-02-15T14:48:48.640Z,28.40
2023-02-15T14:51:46.974Z,27.50
2023-02-15T14:54:19.712Z,29.25
2023-02-15T14:56:47.139Z,30.73
2023-02-15T14:59:24.679Z,27.85
2023-02-15T15:02:14.636Z,28.00
2023-02-15T15:04:46.364Z,31.92
2023-02-15T15:07:12.718Z,28.90
2023-02-15T15:09:42.321Z,29.08
2023-02-15T15:12:26.993Z,30.35
2023-02-15T15:14:55.108Z,33.72
2023-02-15T15:17:33.864Z,29.20
2023-02-15T15:20:14.568Z,29.80
2023-02-15T15:22:43.445Z,36.30
2023-02-15T15:25:12.190Z,32.25
2023-02-15T15:27:54.242Z,44.28
2023-02-15T15:30:23.693Z,32.72
2023-02-15T15:32:56.494Z,32.30
2023-02-15T15:35:53.635Z,32.53
2023-02-15T15:38:38.990Z,35.30
2023-02-15T15:41:49.704Z,32.25
2023-02-15T15:45:00.535Z,33.85
2023-02-15T15:47:36.006Z,33.40
2023-02-15T15:50:12.704Z,33.42
2023-02-15T15:52:40.476Z,36.65
2023-02-15T15:55:17.808Z,34.78
2023-02-15T15:57:46.761Z,35.03
2023-02-15T16:00:37.438Z,35.33
2023-02-15T16:03:04.051Z,37.28
2023-02-15T16:05:38.728Z,35.80
2023-02-15T16:08:05.599Z,49.15
2023-02-15T16:10:34.931Z,34.92
2023-02-15T16:13:02.834Z,40.13
2023-02-15T16:15:34.870Z,37.33
2023-02-15T16:18:01.861Z,37.53
2023-02-15T16:20:32.807Z,45.35
2023-02-15T16:23:26.664Z,42.03
2023-02-15T16:26:02.511Z,34.22
2023-02-15T16:28:29.262Z,38.13
2023-02-15T16:31:06.339Z,51.25
2023-02-15T16:33:38.405Z,35.67
2023-02-15T16:36:08.784Z,35.97
2023-02-15T16:41:17.452Z,33.38
2023-02-15T16:43:46.833Z,35.75
2023-02-15T16:46:21.663Z,31.55
2023-02-15T16:48:52.731Z,32.35
2023-02-15T16:51:28.214Z,32.67
2023-02-15T16:53:57.559Z,31.88
2023-02-15T16:56:31.364Z,32.45
2023-02-15T16:58:59.555Z,31.48
2023-02-15T17:01:30.083Z,30.58
2023-02-15T17:04:35.392Z,30.92
2023-02-15T17:07:17.053Z,35.78
2023-02-15T17:09:54.597Z,34.80
2023-02-15T17:13:09.363Z,30.88
2023-02-15T17:15:41.644Z,31.88
2023-02-15T17:18:24.225Z,33.83
2023-02-15T17:20:53.074Z,37.17
2023-02-15T17:23:26.510Z,34.30
2023-02-15T17:25:53.208Z,32.80
2023-02-15T17:28:23.144Z,36.33
2023-02-15T17:30:51.974Z,42.92
2023-02-15T17:33:39.838Z,34.72
2023-02-15T17:36:14.594Z,38.90
2023-02-15T17:39:12.443Z,42.28
2023-02-15T17:41:38.870Z,44.70
2023-02-15T17:44:05.445Z,44.22
2023-02-15T17:46:37.961Z,42.53
2023-02-15T17:49:04.841Z,45.92
2023-02-15T17:51:32.268Z,46.92
2023-02-15T17:54:17.387Z,52.55
2023-02-15T17:56:43.835Z,48.50
2023-02-15T17:59:12.390Z,45.47
2023-02-15T18:02:03.765Z,43.95
2023-02-15T18:04:51.044Z,46.38
2023-02-15T18:07:37.697Z,44.72
2023-02-15T18:10:40.834Z,49.40
2023-02-15T18:13:07.360Z,55.80
2023-02-15T18:15:35.026Z,50.65
2023-02-15T18:18:02.468Z,47.42
2023-02-15T18:20:34.835Z,50.20
2023-02-15T18:23:02.272Z,50.97
2023-02-15T18:25:28.935Z,49.35
2023-02-15T18:27:55.692Z,53.78
2023-02-15T18:30:24.020Z,57.05
2023-02-15T18:32:53.954Z,65.95
2023-02-15T18:35:22.956Z,62.50
2023-02-15T18:37:50.476Z,50.88
2023-02-15T18:40:19.719Z,53.75
2023-02-15T18:42:48.076Z,49.67
2023-02-15T18:45:32.504Z,49.13
2023-02-15T18:47:59.059Z,63.13
2023-02-15T18:50:28.793Z,57.15
2023-02-15T18:52:55.327Z,49.55
2023-02-15T18:55:24.926Z,48.92
2023-02-15T18:57:53.147Z,54.75
2023-02-15T19:00:34.713Z,47.45
2023-02-15T19:03:02.362Z,46.40
2023-02-15T19:05:30.696Z,51.80
2023-02-15T19:07:59.476Z,61.97
2023-02-15T19:10:28.491Z,56.22
2023-02-15T19:12:56.012Z,50.65
2023-02-15T19:15:25.219Z,48.72
2023-02-15T19:17:52.582Z,47.53
2023-02-15T19:20:25.972Z,51.50
2023-02-15T19:22:54.011Z,45.60
2023-02-15T19:25:26.238Z,44.35
2023-02-15T19:27:54.000Z,58.92
2023-02-15T19:30:24.608Z,43.50
2023-02-15T19:32:51.036Z,46.65
2023-02-15T19:35:22.302Z,43.90
2023-02-15T19:37:51.898Z,45.00
2023-02-15T19:40:22.609Z,63.17
2023-02-15T19:42:49.566Z,45.00
2023-02-15T19:45:18.561Z,43.78
2023-02-15T19:47:45.281Z,46.58
2023-02-15T19:50:20.675Z,47.95
2023-02-15T19:52:47.759Z,48.22
2023-02-15T19:55:43.388Z,49.42
2023-02-15T19:58:12.814Z,45.50
2023-02-15T20:00:39.476Z,45.20
2023-02-15T20:03:05.961Z,49.00
2023-02-15T20:05:38.232Z,49.53
2023-02-15T20:08:10.064Z,45.55
2023-02-15T20:10:36.453Z,38.00
2023-02-15T20:13:03.411Z,41.72
2023-02-15T20:15:35.074Z,38.40
2023-02-15T20:18:04.010Z,39.85
2023-02-15T20:20:46.557Z,41.95
2023-02-15T20:23:20.102Z,40.10
2023-02-15T20:25:46.586Z,46.92
2023-02-15T20:28:19.478Z,43.42
2023-02-15T20:30:46.393Z,38.72
2023-02-15T20:33:13.708Z,51.05
2023-02-15T20:35:41.568Z,41.80
2023-02-15T20:38:17.375Z,40.17
2023-02-15T20:41:04.073Z,39.13
2023-02-15T20:43:30.695Z,41.13
2023-02-15T20:45:57.079Z,37.20
2023-02-15T20:48:23.494Z,40.58
2023-02-15T20:50:49.901Z,39.50
2023-02-15T20:53:16.417Z,46.65
2023-02-15T20:55:42.795Z,36.60
2023-02-15T20:58:27.668Z,40.88
2023-02-15T21:00:55.997Z,35.55
2023-02-15T21:03:26.410Z,45.10
2023-02-15T21:08:21.841Z,41.53
2023-02-15T21:10:50.052Z,38.33
2023-02-15T21:13:29.527Z,37.65
2023-02-15T21:15:57.280Z,33.67
2023-02-15T21:18:30.103Z,34.58
2023-02-15T21:20:59.293Z,37.50
2023-02-15T21:23:32.118Z,38.85
2023-02-15T21:25:58.596Z,35.00
2023-02-15T21:28:27.315Z,42.40
2023-02-15T21:30:55.252Z,40.67
2023-02-15T21:33:21.657Z,38.83
2023-02-15T21:35:51.683Z,51.63
2023-02-15T21:38:23.676Z,46.65
2023-02-15T21:40:50.648Z,36.25
2023-02-15T21:43:40.714Z,37.90
2023-02-15T21:46:39.488Z,42.05
2023-02-15T21:49:08.621Z,36.28
2023-02-15T21:51:53.599Z,38.40
2023-02-15T21:54:21.023Z,37.15
2023-02-15T21:56:50.983Z,39.47
2023-02-15T21:59:18.006Z,36.90
2023-02-15T22:01:50.040Z,41.70
2023-02-15T22:04:25.846Z,35.00
2023-02-15T22:06:52.397Z,36.70
2023-02-15T22:09:21.976Z,34.17
2023-02-15T22:11:49.218Z,34.97
2023-02-15T22:14:36.407Z,39.70
2023-02-15T22:17:23.266Z,36.97
2023-02-15T22:19:50.194Z,34.50
2023-02-15T22:22:17.072Z,35.72
2023-02-15T22:24:44.636Z,35.00
2023-02-15T22:27:22.996Z,38.15
2023-02-15T22:29:50.103Z,42.45
2023-02-15T22:32:22.416Z,37.42
2023-02-15T22:34:49.923Z,35.47
2023-02-15T22:37:17.064Z,43.25
2023-02-15T22:39:43.554Z,41.47
2023-02-15T22:42:25.169Z,36.95
2023-02-15T22:44:54.594Z,38.05
2023-02-15T22:47:29.270Z,40.30
2023-02-15T22:49:55.689Z,37.03
2023-02-15T22:52:22.209Z,39.45
2023-02-15T22:54:48.978Z,43.75
2023-02-15T22:57:25.371Z,36.20
2023-02-15T22:59:51.851Z,37.15
2023-02-15T23:02:18.205Z,35.15
2023-02-15T23:04:44.622Z,39.20
2023-02-15T23:07:17.212Z,35.80
2023-02-15T23:09:44.302Z,35.65
2023-02-15T23:12:24.289Z,35.33
2023-02-15T23:14:51.059Z,46.17
2023-02-15T23:17:17.749Z,40.72
2023-02-15T23:19:44.281Z,38.60
2023-02-15T23:22:18.100Z,34.88
2023-02-15T23:24:51.933Z,37.65
2023-02-15T23:27:37.625Z,36.28
2023-02-15T23:30:05.993Z,38.80
2023-02-15T23:32:32.650Z,37.03
2023-02-15T23:34:59.175Z,38.50
2023-02-15T23:37:25.571Z,38.40
2023-02-15T23:40:10.597Z,33.33
2023-02-15T23:42:37.054Z,34.25
2023-02-15T23:45:03.764Z,39.03
2023-02-15T23:47:52.398Z,35.83
2023-02-15T23:50:24.475Z,42.20
2023-02-15T23:52:51.800Z,38.92
2023-02-15T23:55:18.390Z,47.30
2023-02-15T23:57:45.772Z,38.42
